Meteo Giornale » Osservazioni meteo Italia » Grazzanise

ore: 04:55 - Osservazioni Meteo Grazzanise
Lat. 41° 3' N Lon. 14° 4' E Alt. 9 metri s.l.m.

sereno Europe/Rome

23 °C

Sereno

Temp. 24 Ore

23 °C

33 °C

Ovest/Nord-Ovest

7.4 Km/h

Dew point 22 °C

Umidità 94 %

Visibilità  10 Km

Il sole sorge alle ore 06:15

Il sole tramonta alle ore 20:00

Data e Ora Cielo e Fenomeni T °C DP °C Um. % Pres. hPa Vis. km Vento km/h
Oggi h: 04:55 sereno Sereno 23 22 94 1012 10 O/NO 7.4
Oggi h: 03:55 sereno Sereno 23 21 88 1012 10 N 5.5
Oggi h: 02:55 sereno Sereno 24 22 88 1012 10 N 3.7
Oggi h: 01:55 sereno Sereno 24 22 88 1012 10 N 3.7
Oggi h: 00:55 sereno Sereno 24 22 88 1012 10 N 3.7
Ieri h: 23:55 sereno Sereno 24 23 94 1012 10 N 5.5
Ieri h: 22:55 sereno Sereno 25 23 88 1012 10 N 5.5
Ieri h: 21:55 sereno Sereno 26 24 88 1011 10 N 3.7
Ieri h: 20:55 sereno Sereno 27 23 78 1011 10 N 3.7
Ieri h: 19:55 sereno Sereno 29 23 70 1012 10 N 3.7
Ieri h: 18:55 sereno Sereno 30 23 66 1012 10 SO 9.3
Ieri h: 17:55 sereno Sereno 31 21 55 1012 10 S/SO 18.5
Ieri h: 16:55 sereno Sereno 32 15 35 1012 10 S 14.8
Ieri h: 15:55 poco_nuvoloso Poco Nuvoloso 33 16 36 1012 10 S 14.8
Ieri h: 14:55 poco_nuvoloso Poco Nuvoloso 32 17 40 1013 10 SO 7.4
Ieri h: 13:55 poco_nuvoloso Poco Nuvoloso 32 19 46 1013 10 S 14.8
Ieri h: 12:55 poco_nuvoloso Poco Nuvoloso 31 20 52 1013 10 S 11.1
Ieri h: 11:55 poco_nuvoloso Poco Nuvoloso 31 16 40 1013 10 SE 9.3
Ieri h: 10:55 poco_nuvoloso Poco Nuvoloso 30 18 48 1013 10 E/NE 7.4
Ieri h: 09:55 poco_nuvoloso Poco Nuvoloso 28 21 65 1013 10 N/NE 11.1
Ieri h: 08:55 sereno Sereno 26 22 78 1013 8 N 9.3
Ieri h: 07:55 nuvoloso Nuvoloso 24 21 83 1013 7 N 5.5
Ieri h: 06:55 nuvoloso Nuvoloso 23 21 88 1013 7 N/NO 7.4